Time,TemperatureF,DewpointF,PressureIn,WindDirection,WindDirectionDegrees,WindSpeedMPH,WindSpeedGustMPH,Humidity,HourlyPrecipIn,Conditions,Clouds,dailyrainin,SoftwareType,DateUTC
2013-03-12 00:02:00,69.0,-99.9,-100.00,NE,50,3.0,3.0,-999,-99.99,,,-99.99,,2013-03-12 07:02:00,
2013-03-12 00:22:00,65.0,-99.9,-100.00,NE,54,3.0,4.0,-999,-99.99,,,-99.99,,2013-03-12 07:22:00,
2013-03-12 00:32:00,65.0,-99.9,-100.00,NE,54,3.0,4.0,-999,-99.99,,,-99.99,,2013-03-12 07:32:00,
2013-03-12 00:53:00,67.0,-99.9,-100.00,SSE,148,1.0,2.0,-999,-99.99,,,-99.99,,2013-03-12 07:53:00,
2013-03-12 01:02:00,68.0,-99.9,-100.00,ESE,117,1.0,3.0,-999,-99.99,,,-99.99,,2013-03-12 08:02:00,
2013-03-12 01:13:00,68.0,-99.9,-100.00,ESE,117,1.0,3.0,-999,-99.99,,,-99.99,,2013-03-12 08:13:00,
2013-03-12 01:22:00,68.0,-99.9,-100.00,ESE,117,1.0,3.0,-999,-99.99,,,-99.99,,2013-03-12 08:22:00,
2013-03-12 02:00:00,65.0,-99.9,-100.00,West,264,0.0,2.0,-999,-99.99,,,-99.99,,2013-03-12 09:00:00,
2013-03-12 02:03:00,65.0,-99.9,-100.00,SSW,212,0.0,0.0,-999,-99.99,,,-99.99,,2013-03-12 09:03:00,
2013-03-12 02:12:00,65.0,-99.9,-100.00,SSW,212,0.0,0.0,-999,-99.99,,,-99.99,,2013-03-12 09:12:00,
2013-03-12 02:33:00,65.0,-99.9,-100.00,West,264,0.0,2.0,-999,-99.99,,,-99.99,,2013-03-12 09:33:00,
2013-03-12 02:43:00,65.0,-99.9,-100.00,West,264,0.0,2.0,-999,-99.99,,,-99.99,,2013-03-12 09:43:00,
2013-03-12 02:53:00,65.0,-99.9,-100.00,West,264,0.0,2.0,-999,-99.99,,,-99.99,,2013-03-12 09:53:00,
2013-03-12 05:20:00,65.0,-99.9,-100.00,SW,234,1.0,4.0,-999,-99.99,,,-99.99,,2013-03-12 12:20:00,
2013-03-12 05:32:00,62.0,-99.9,-100.00,NW,324,3.0,7.0,-999,-99.99,,,-99.99,,2013-03-12 12:32:00,
2013-03-12 05:42:00,62.0,-99.9,-100.00,NW,324,3.0,7.0,-999,-99.99,,,-99.99,,2013-03-12 12:42:00,
2013-03-12 05:52:00,62.0,-99.9,-100.00,NW,324,3.0,7.0,-999,-99.99,,,-99.99,,2013-03-12 12:52:00,
2013-03-12 06:02:00,65.0,-99.9,-100.00,SW,234,1.0,4.0,-999,-99.99,,,-99.99,,2013-03-12 13:02:00,
2013-03-12 06:12:00,65.0,-99.9,-100.00,SW,234,1.0,4.0,-999,-99.99,,,-99.99,,2013-03-12 13:12:00,
2013-03-12 06:53:00,65.0,-99.9,-100.00,West,269,0.0,2.0,-999,-99.99,,,-99.99,,2013-03-12 13:53:00,
2013-03-12 07:03:00,65.0,-99.9,-100.00,West,272,4.0,4.0,-999,-99.99,,,-99.99,,2013-03-12 14:03:00,
2013-03-12 07:34:00,64.0,-99.9,-100.00,West,262,2.0,11.0,-999,-99.99,,,-99.99,,2013-03-12 14:34:00,
2013-03-12 07:53:00,64.0,-99.9,-100.00,SW,219,1.0,4.0,-999,-99.99,,,-99.99,,2013-03-12 14:53:00,
2013-03-12 08:40:00,70.0,-99.9,-100.00,West,263,6.0,13.0,-999,-99.99,,,-99.99,,2013-03-12 15:40:00,
2013-03-12 09:10:00,74.0,-99.9,-100.00,ESE,117,0.0,2.0,-999,-99.99,,,-99.99,,2013-03-12 16:10:00,
2013-03-12 09:23:00,70.0,-99.9,-100.00,West,263,6.0,13.0,-999,-99.99,,,-99.99,,2013-03-12 16:23:00,
2013-03-12 09:33:00,70.0,-99.9,-100.00,West,263,6.0,13.0,-999,-99.99,,,-99.99,,2013-03-12 16:33:00,
2013-03-12 09:53:00,74.0,-99.9,-100.00,ESE,117,0.0,2.0,-999,-99.99,,,-99.99,,2013-03-12 16:53:00,
2013-03-12 10:03:00,74.0,-99.9,-100.00,ESE,117,0.0,2.0,-999,-99.99,,,-99.99,,2013-03-12 17:03:00,
2013-03-12 10:30:00,86.0,-99.9,-100.00,West,281,1.0,1.0,-999,-99.99,,,-99.99,,2013-03-12 17:30:00,
2013-03-12 11:03:00,85.0,-99.9,-100.00,South,189,0.0,0.0,-999,-99.99,,,-99.99,,2013-03-12 18:03:00,
2013-03-12 11:13:00,85.0,-99.9,-100.00,South,189,0.0,0.0,-999,-99.99,,,-99.99,,2013-03-12 18:13:00,
2013-03-12 11:24:00,86.0,-99.9,-100.00,West,281,1.0,1.0,-999,-99.99,,,-99.99,,2013-03-12 18:24:00,
2013-03-12 13:02:00,87.0,-99.9,-100.00,East,100,1.0,5.0,-999,-99.99,,,-99.99,,2013-03-12 20:02:00,
2013-03-12 13:13:00,87.0,-99.9,-100.00,East,100,1.0,5.0,-999,-99.99,,,-99.99,,2013-03-12 20:13:00,
2013-03-12 13:23:00,87.0,-99.9,-100.00,East,100,1.0,5.0,-999,-99.99,,,-99.99,,2013-03-12 20:23:00,
2013-03-12 14:53:00,87.0,-99.9,-100.00,ESE,114,1.0,6.0,-999,-99.99,,,-99.99,,2013-03-12 21:53:00,
2013-03-12 15:03:00,87.0,-99.9,-100.00,ESE,114,1.0,6.0,-999,-99.99,,,-99.99,,2013-03-12 22:03:00,
2013-03-12 16:00:00,91.0,-99.9,-100.00,SSW,204,0.0,1.0,-999,-99.99,,,-99.99,,2013-03-12 23:00:00,
2013-03-12 16:53:00,91.0,-99.9,-100.00,SSW,204,0.0,1.0,-999,-99.99,,,-99.99,,2013-03-12 23:53:00,
2013-03-12 17:00:00,89.0,-99.9,-100.00,ENE,69,3.0,3.0,-999,-99.99,,,-99.99,,2013-03-13 00:00:00,
2013-03-12 17:54:00,89.0,-99.9,-100.00,ENE,69,3.0,3.0,-999,-99.99,,,-99.99,,2013-03-13 00:54:00,
2013-03-12 19:33:00,85.0,-99.9,-100.00,ENE,68,2.0,3.0,-999,-99.99,,,-99.99,,2013-03-13 02:33:00,
2013-03-12 19:43:00,85.0,-99.9,-100.00,ENE,68,2.0,3.0,-999,-99.99,,,-99.99,,2013-03-13 02:43:00,
2013-03-12 19:53:00,83.0,-99.9,-100.00,ENE,76,4.0,6.0,-999,-99.99,,,-99.99,,2013-03-13 02:53:00,
2013-03-12 20:03:00,83.0,-99.9,-100.00,East,89,7.0,7.0,-999,-99.99,,,-99.99,,2013-03-13 03:03:00,
2013-03-12 20:13:00,83.0,-99.9,-100.00,East,89,7.0,7.0,-999,-99.99,,,-99.99,,2013-03-13 03:13:00,
2013-03-12 20:23:00,83.0,-99.9,-100.00,ESE,103,0.0,4.0,-999,-99.99,,,-99.99,,2013-03-13 03:23:00,
2013-03-12 20:33:00,83.0,-99.9,-100.00,ESE,103,0.0,4.0,-999,-99.99,,,-99.99,,2013-03-13 03:33:00,
2013-03-12 21:03:00,80.0,-99.9,-100.00,SSE,167,0.0,1.0,-999,-99.99,,,-99.99,,2013-03-13 04:03:00,
2013-03-12 21:13:00,80.0,-99.9,-100.00,SSE,167,0.0,1.0,-999,-99.99,,,-99.99,,2013-03-13 04:13:00,
2013-03-12 21:30:00,75.0,-99.9,-100.00,SE,130,1.0,1.0,-999,-99.99,,,-99.99,,2013-03-13 04:30:00,
2013-03-12 21:53:00,75.0,-99.9,-100.00,West,268,1.0,1.0,-999,-99.99,,,-99.99,,2013-03-13 04:53:00,
2013-03-12 22:03:00,75.0,-99.9,-100.00,West,268,1.0,1.0,-999,-99.99,,,-99.99,,2013-03-13 05:03:00,
2013-03-12 22:22:00,75.0,-99.9,-100.00,SE,130,1.0,1.0,-999,-99.99,,,-99.99,,2013-03-13 05:22:00,
2013-03-12 22:40:00,75.0,-99.9,-100.00,WNW,292,1.0,8.0,-999,-99.99,,,-99.99,,2013-03-13 05:40:00,
2013-03-12 23:02:00,76.0,-99.9,-100.00,ESE,104,0.0,1.0,-999,-99.99,,,-99.99,,2013-03-13 06:02:00,
2013-03-12 23:13:00,76.0,-99.9,-100.00,ESE,104,0.0,1.0,-999,-99.99,,,-99.99,,2013-03-13 06:13:00,
2013-03-12 23:23:00,75.0,-99.9,-100.00,WNW,292,1.0,8.0,-999,-99.99,,,-99.99,,2013-03-13 06:23:00,
2013-03-12 23:33:00,75.0,-99.9,-100.00,WNW,292,1.0,8.0,-999,-99.99,,,-99.99,,2013-03-13 06:33:00,